Scout — WCZ5277 — position and weather

sailwx.info

Track history (hours):
 
Tides and Currents Weather Stations Pressure Air Temp Water Temp Dewpoint Dewpoint Depression Visibility Wind Speed Wind Dir Waves Ship Positions

Scout

Owner: ERGON MARINE & INDUSTRIAL SUPPLY, VICKSBURG, MS. More information available from US FCC via Universal Licensing System.

Last reported at 2016-Jul-24 00:33 UTC. Time now 2016-Jul-24 01:03 UTC.
Position N 32°20' W 090°54'.

Length 14 m.

Type: Towing. MMSI: 367402890.

Date/timePositionNaut miles runAvg speedWind from/ knotsBaromVisibWave heightAir tempDewpointWater temp
2016-Jul-24 00:33N 32°20' W 090°54'0 0.0
2016-Jul-23 23:34N 32°20' W 090°54'0 0.0
2016-Jul-23 22:33N 32°20' W 090°54'0 0.0
2016-Jul-23 21:34N 32°20' W 090°54'0 0.0
2016-Jul-23 20:33N 32°20' W 090°54'0 0.0
2016-Jul-23 19:33N 32°20' W 090°54'0 0.0
2016-Jul-23 18:33N 32°20' W 090°54'0 0.0
2016-Jul-23 17:34N 32°20' W 090°54'0 0.0
2016-Jul-23 16:33N 32°20' W 090°54'0 0.0
2016-Jul-23 15:34N 32°20' W 090°54'0 0.0
2016-Jul-23 14:33N 32°20' W 090°54'0 0.0
2016-Jul-23 13:33N 32°20' W 090°54'0 0.0
2016-Jul-23 12:33N 32°20' W 090°54'0 0.0
2016-Jul-23 11:33N 32°20' W 090°54'0 0.0
2016-Jul-23 10:34N 32°20' W 090°54'0 0.0
2016-Jul-23 09:34N 32°20' W 090°54'0 0.0
2016-Jul-23 08:34N 32°20' W 090°54'0 0.0
2016-Jul-23 07:34N 32°20' W 090°54'0 0.0
2016-Jul-23 06:33N 32°20' W 090°54'0 0.0
2016-Jul-23 04:33N 32°20' W 090°54'0 0.0
2016-Jul-23 03:34N 32°20' W 090°54'0 0.0
2016-Jul-23 02:33N 32°20' W 090°54'0 0.0
2016-Jul-23 01:33N 32°20' W 090°54'0 0.0
2016-Jul-23 00:33N 32°20' W 090°54'0 0.0
2016-Jul-22 23:34N 32°20' W 090°54'0 0.0
2016-Jul-22 22:34N 32°20' W 090°54'0 0.0
2016-Jul-22 21:33N 32°20' W 090°54'2 1.9
2016-Jul-22 20:33N 32°18' W 090°55'0 0.4
2016-Jul-22 19:33N 32°18' W 090°56'0 0.0
2016-Jul-22 18:33N 32°18' W 090°56'0 0.0
2016-Jul-22 17:34N 32°18' W 090°56'0 0.0
2016-Jul-22 16:33N 32°18' W 090°56'2 2.4
2016-Jul-22 15:34N 32°20' W 090°54'0 0.0
2016-Jul-22 14:33N 32°20' W 090°54'0 0.0
2016-Jul-22 13:33N 32°20' W 090°54'0 0.0
2016-Jul-22 12:33N 32°20' W 090°54'0 0.0
2016-Jul-22 11:33N 32°20' W 090°54'0 0.0
2016-Jul-22 10:33N 32°20' W 090°54'0 0.0
2016-Jul-22 09:33N 32°20' W 090°54'0 0.0
2016-Jul-22 08:33N 32°20' W 090°54'0 0.0
2016-Jul-22 07:33N 32°20' W 090°54'2 1.0
2016-Jul-22 05:33N 32°21' W 090°53'2 1.6
2016-Jul-22 04:33N 32°23' W 090°53'0 0.0
2016-Jul-22 03:33N 32°23' W 090°53'0 0.2
2016-Jul-22 02:32N 32°23' W 090°53'2 2.1
2016-Jul-22 01:33N 32°21' W 090°53'1 1.4
2016-Jul-22 00:33N 32°20' W 090°54'0 0.0
2016-Jul-21 23:33N 32°20' W 090°54'0 0.0
2016-Jul-21 22:33N 32°20' W 090°54'0 0.0
2016-Jul-21 21:33N 32°20' W 090°54'0 0.0
2016-Jul-21 20:33N 32°20' W 090°54'0 0.0
2016-Jul-21 19:33N 32°20' W 090°54'1 1.0
2016-Jul-21 18:34N 32°21' W 090°54'3 2.8
2016-Jul-21 17:33N 32°21' W 090°57'4 4.1
2016-Jul-21 16:33N 32°23' W 090°53'1 0.8
2016-Jul-21 15:33N 32°23' W 090°53'0 0.3
2016-Jul-21 14:33N 32°23' W 090°53'0 0.2
2016-Jul-21 13:34N 32°23' W 090°53'2 1.6
2016-Jul-21 12:31N 32°22' W 090°53'2 2.2
2016-Jul-21 11:33N 32°20' W 090°54'0 0.0
2016-Jul-21 10:33N 32°20' W 090°54'0 0.0
2016-Jul-21 09:33N 32°20' W 090°54'0 0.0
2016-Jul-21 08:32N 32°20' W 090°54'0 0.0
2016-Jul-21 07:33N 32°20' W 090°54'0 0.0
2016-Jul-21 06:33N 32°20' W 090°54'0 0.0
2016-Jul-21 05:33N 32°20' W 090°54'0 0.0
2016-Jul-21 04:33N 32°20' W 090°54'0 0.0
2016-Jul-21 03:32N 32°20' W 090°54'0 0.0
2016-Jul-21 02:33N 32°20' W 090°54'0 0.0
2016-Jul-21 01:33N 32°20' W 090°54'0 0.0
2016-Jul-21 00:33N 32°20' W 090°54'0 0.0
2016-Jul-20 23:33N 32°20' W 090°54'0 0.0
2016-Jul-20 22:33N 32°20' W 090°54'3 2.9
2016-Jul-20 21:34N 32°22' W 090°53'1 0.7
2016-Jul-20 20:33N 32°23' W 090°53'0 0.3
2016-Jul-20 19:33N 32°23' W 090°53'0 0.2
2016-Jul-20 18:33N 32°23' W 090°53'0 0.0
2016-Jul-20 17:33N 32°23' W 090°53'3 3.0
2016-Jul-20 16:33N 32°20' W 090°54'3 3.1
2016-Jul-20 15:34N 32°18' W 090°55'5 4.7
2016-Jul-20 14:34N 32°22' W 090°53'2 0.1
2016-Jul-18 23:33N 32°20' W 090°54'1 1.0
2016-Jul-18 22:32N 32°21' W 090°54'0 0.0
2016-Jul-18 21:34N 32°21' W 090°54'3 2.6
2016-Jul-18 20:33N 32°23' W 090°55'0 0.0
2016-Jul-18 19:33N 32°23' W 090°55'0 0.0
2016-Jul-18 18:33N 32°23' W 090°55'1 0.8
2016-Jul-18 17:33N 32°23' W 090°54'1 1.3
2016-Jul-18 16:33N 32°21' W 090°53'2 2.0
2016-Jul-18 15:33N 32°21' W 090°55'2 2.1
2016-Jul-18 14:33N 32°21' W 090°58'0 0.0
2016-Jul-18 13:33N 32°21' W 090°57'3 2.8
2016-Jul-18 12:33N 32°20' W 090°54'1 0.7
2016-Jul-18 11:33N 32°20' W 090°54'0 0.0
2016-Jul-18 10:33N 32°20' W 090°54'0 0.0
2016-Jul-18 09:33N 32°20' W 090°54'0 0.0
2016-Jul-18 08:34N 32°20' W 090°54'0 0.0
2016-Jul-18 07:33N 32°20' W 090°54'0 0.0
2016-Jul-18 06:33N 32°20' W 090°54'0 0.0
2016-Jul-18 05:33N 32°20' W 090°54'0 0.0
2016-Jul-18 04:33N 32°20' W 090°54'0 0.0
2016-Jul-18 03:33N 32°20' W 090°54'0 0.0
2016-Jul-18 02:33N 32°20' W 090°54'0 0.0
2016-Jul-18 01:31N 32°20' W 090°54'0 0.0
2016-Jul-18 00:33N 32°20' W 090°54'0 0.0
2016-Jul-17 23:33N 32°20' W 090°54'0 0.0
2016-Jul-17 22:32N 32°20' W 090°54'0 0.0
2016-Jul-17 21:31N 32°20' W 090°54'0 0.0
2016-Jul-17 20:33N 32°20' W 090°54'0 0.0
2016-Jul-17 19:33N 32°20' W 090°54'0 0.0
2016-Jul-17 18:32N 32°20' W 090°54'0 0.0
2016-Jul-17 17:33N 32°20' W 090°54'0 0.0
2016-Jul-17 16:33N 32°20' W 090°54'0 0.0
2016-Jul-17 15:33N 32°20' W 090°54'0 0.0
2016-Jul-17 14:33N 32°20' W 090°54'0 0.0
2016-Jul-17 13:33N 32°20' W 090°54'0 0.0
2016-Jul-17 12:33N 32°20' W 090°54'0 0.0
2016-Jul-17 11:33N 32°20' W 090°54'0 0.0
2016-Jul-17 10:32N 32°20' W 090°54'0 0.0
2016-Jul-17 09:33N 32°20' W 090°54'0 0.0
2016-Jul-17 08:33N 32°20' W 090°54'0 0.0
2016-Jul-17 07:33N 32°20' W 090°54'0 0.0
2016-Jul-17 06:31N 32°20' W 090°54'0 0.0
2016-Jul-17 04:33N 32°20' W 090°54'0 0.0
2016-Jul-17 03:33N 32°20' W 090°54'0 0.0
2016-Jul-17 02:33N 32°20' W 090°54'0 0.0
2016-Jul-17 01:33N 32°20' W 090°54'0 0.0
2016-Jul-17 00:34N 32°20' W 090°54'0 0.0
2016-Jul-16 23:33N 32°20' W 090°54'0 0.0
2016-Jul-16 22:33N 32°20' W 090°54'0 0.0
2016-Jul-16 21:33N 32°20' W 090°54'0 0.0
2016-Jul-16 20:33N 32°20' W 090°54'0 0.0
2016-Jul-16 19:33N 32°20' W 090°54'0 0.0
2016-Jul-16 18:33N 32°20' W 090°54'0 0.0
2016-Jul-16 17:33N 32°20' W 090°54'0 0.0
2016-Jul-16 16:33N 32°20' W 090°54'0 0.0
2016-Jul-16 15:34N 32°20' W 090°54'0 0.0
2016-Jul-16 14:33N 32°20' W 090°54'0 0.0
2016-Jul-16 13:33N 32°20' W 090°54'0 0.0
2016-Jul-16 12:33N 32°20' W 090°54'0 0.0
2016-Jul-16 11:33N 32°20' W 090°54'0 0.0
2016-Jul-16 10:33N 32°20' W 090°54'0 0.0
2016-Jul-16 09:33N 32°20' W 090°54'0 0.0
2016-Jul-16 08:33N 32°20' W 090°54'0 0.0
2016-Jul-16 07:33N 32°20' W 090°54'0 0.0
2016-Jul-16 06:33N 32°20' W 090°54'0 0.0
2016-Jul-16 04:33N 32°20' W 090°54'0 0.0
2016-Jul-16 03:34N 32°20' W 090°54'0 0.0
2016-Jul-16 02:33N 32°20' W 090°54'0 0.0
2016-Jul-16 01:33N 32°20' W 090°54'0 0.0
2016-Jul-16 00:32N 32°20' W 090°54'0 0.0
2016-Jul-15 23:33N 32°20' W 090°54'0 0.0
2016-Jul-15 22:33N 32°20' W 090°54'2 2.2
2016-Jul-15 21:33N 32°22' W 090°53'0 0.2
2016-Jul-15 20:33N 32°22' W 090°53'1 0.5
2016-Jul-15 19:33N 32°22' W 090°53'3 2.8
2016-Jul-15 18:33N 32°20' W 090°54'0 0.0
2016-Jul-15 17:34N 32°20' W 090°54'0 0.0
2016-Jul-15 16:32N 32°20' W 090°54'3 3.1
2016-Jul-15 15:33N 32°22' W 090°53'0 0.4
2016-Jul-15 14:34N 32°22' W 090°53'1 0.6
2016-Jul-15 13:33N 32°22' W 090°53'0 0.0
2016-Jul-15 12:33N 32°22' W 090°53'2 2.2
2016-Jul-15 11:33N 32°20' W 090°54'0 0.0
2016-Jul-15 10:33N 32°20' W 090°54'0 0.0
2016-Jul-15 09:33N 32°20' W 090°54'0 0.0
2016-Jul-15 08:33N 32°20' W 090°54'0 0.0
2016-Jul-15 07:33N 32°20' W 090°54'0 0.0
2016-Jul-15 06:33N 32°20' W 090°54'0 0.0
2016-Jul-15 05:33N 32°20' W 090°54'0 0.0
2016-Jul-15 04:33N 32°20' W 090°54'0 0.0
2016-Jul-15 03:33N 32°20' W 090°54'0 0.0
2016-Jul-15 02:32N 32°20' W 090°54'0 0.0
2016-Jul-15 01:33N 32°20' W 090°54'0 0.0
2016-Jul-15 00:32N 32°20' W 090°54'0 0.0
2016-Jul-14 23:33N 32°20' W 090°54'0 0.0
2016-Jul-14 22:32N 32°20' W 090°54'0 0.0
2016-Jul-14 21:33N 32°20' W 090°54'0 0.0
2016-Jul-14 20:33N 32°20' W 090°54'0 0.0
2016-Jul-14 19:33N 32°20' W 090°54'0 0.0
2016-Jul-14 18:33N 32°20' W 090°54'0 0.0
2016-Jul-14 17:33N 32°20' W 090°54'0 0.0
2016-Jul-14 16:34N 32°20' W 090°54'0 0.0
2016-Jul-14 15:33N 32°20' W 090°54'0 0.0
2016-Jul-14 14:33N 32°20' W 090°54'0 0.0
2016-Jul-14 13:33N 32°20' W 090°54'0 0.0
2016-Jul-14 12:33N 32°20' W 090°54'0 0.0
2016-Jul-14 11:33N 32°20' W 090°54'0 0.0
2016-Jul-14 10:33N 32°20' W 090°54'0 0.0
2016-Jul-14 09:33N 32°20' W 090°54'0 0.0
2016-Jul-14 08:33N 32°20' W 090°54'0 0.0
2016-Jul-14 07:33N 32°20' W 090°54'0 0.0
2016-Jul-14 06:33N 32°20' W 090°54'0 0.0
2016-Jul-14 05:33N 32°20' W 090°54'0 0.0
2016-Jul-14 04:33N 32°20' W 090°54'0 0.0
2016-Jul-14 03:33N 32°20' W 090°54'0 0.0
2016-Jul-14 02:33N 32°20' W 090°54'0 0.0
2016-Jul-14 01:33N 32°20' W 090°54'0 0.0
2016-Jul-14 00:33N 32°20' W 090°54'  
Track history (hours):
 
Tides and Currents Weather Stations Pressure Air Temp Water Temp Dewpoint Dewpoint Depression Visibility Wind Speed Wind Dir Waves Ship Positions

Scout

Owner: ERGON MARINE & INDUSTRIAL SUPPLY, VICKSBURG, MS. More information available from US FCC via Universal Licensing System.

Last reported at 2016-Jul-24 00:33 UTC. Time now 2016-Jul-24 01:03 UTC.
Position N 32°20' W 090°54'.

Length 14 m.

Type: Towing. MMSI: 367402890.

Date/timePositionNaut miles runAvg speedWind from/ knotsBaromVisibWave heightAir tempDewpointWater temp
2016-Jul-24 00:33N 32°20' W 090°54'0 0.0
2016-Jul-23 23:34N 32°20' W 090°54'0 0.0
2016-Jul-23 22:33N 32°20' W 090°54'0 0.0
2016-Jul-23 21:34N 32°20' W 090°54'0 0.0
2016-Jul-23 20:33N 32°20' W 090°54'0 0.0
2016-Jul-23 19:33N 32°20' W 090°54'0 0.0
2016-Jul-23 18:33N 32°20' W 090°54'0 0.0
2016-Jul-23 17:34N 32°20' W 090°54'0 0.0
2016-Jul-23 16:33N 32°20' W 090°54'0 0.0
2016-Jul-23 15:34N 32°20' W 090°54'0 0.0
2016-Jul-23 14:33N 32°20' W 090°54'0 0.0
2016-Jul-23 13:33N 32°20' W 090°54'0 0.0
2016-Jul-23 12:33N 32°20' W 090°54'0 0.0
2016-Jul-23 11:33N 32°20' W 090°54'0 0.0
2016-Jul-23 10:34N 32°20' W 090°54'0 0.0
2016-Jul-23 09:34N 32°20' W 090°54'0 0.0
2016-Jul-23 08:34N 32°20' W 090°54'0 0.0
2016-Jul-23 07:34N 32°20' W 090°54'0 0.0
2016-Jul-23 06:33N 32°20' W 090°54'0 0.0
2016-Jul-23 04:33N 32°20' W 090°54'0 0.0
2016-Jul-23 03:34N 32°20' W 090°54'0 0.0
2016-Jul-23 02:33N 32°20' W 090°54'0 0.0
2016-Jul-23 01:33N 32°20' W 090°54'0 0.0
2016-Jul-23 00:33N 32°20' W 090°54'0 0.0
2016-Jul-22 23:34N 32°20' W 090°54'0 0.0
2016-Jul-22 22:34N 32°20' W 090°54'0 0.0
2016-Jul-22 21:33N 32°20' W 090°54'2 1.9
2016-Jul-22 20:33N 32°18' W 090°55'0 0.4
2016-Jul-22 19:33N 32°18' W 090°56'0 0.0
2016-Jul-22 18:33N 32°18' W 090°56'0 0.0
2016-Jul-22 17:34N 32°18' W 090°56'0 0.0
2016-Jul-22 16:33N 32°18' W 090°56'2 2.4
2016-Jul-22 15:34N 32°20' W 090°54'0 0.0
2016-Jul-22 14:33N 32°20' W 090°54'0 0.0
2016-Jul-22 13:33N 32°20' W 090°54'0 0.0
2016-Jul-22 12:33N 32°20' W 090°54'0 0.0
2016-Jul-22 11:33N 32°20' W 090°54'0 0.0
2016-Jul-22 10:33N 32°20' W 090°54'0 0.0
2016-Jul-22 09:33N 32°20' W 090°54'0 0.0
2016-Jul-22 08:33N 32°20' W 090°54'0 0.0
2016-Jul-22 07:33N 32°20' W 090°54'2 1.0
2016-Jul-22 05:33N 32°21' W 090°53'2 1.6
2016-Jul-22 04:33N 32°23' W 090°53'0 0.0
2016-Jul-22 03:33N 32°23' W 090°53'0 0.2
2016-Jul-22 02:32N 32°23' W 090°53'2 2.1
2016-Jul-22 01:33N 32°21' W 090°53'1 1.4
2016-Jul-22 00:33N 32°20' W 090°54'0 0.0
2016-Jul-21 23:33N 32°20' W 090°54'0 0.0
2016-Jul-21 22:33N 32°20' W 090°54'0 0.0
2016-Jul-21 21:33N 32°20' W 090°54'0 0.0
2016-Jul-21 20:33N 32°20' W 090°54'0 0.0
2016-Jul-21 19:33N 32°20' W 090°54'1 1.0
2016-Jul-21 18:34N 32°21' W 090°54'3 2.8
2016-Jul-21 17:33N 32°21' W 090°57'4 4.1
2016-Jul-21 16:33N 32°23' W 090°53'1 0.8
2016-Jul-21 15:33N 32°23' W 090°53'0 0.3
2016-Jul-21 14:33N 32°23' W 090°53'0 0.2
2016-Jul-21 13:34N 32°23' W 090°53'2 1.6
2016-Jul-21 12:31N 32°22' W 090°53'2 2.2
2016-Jul-21 11:33N 32°20' W 090°54'0 0.0
2016-Jul-21 10:33N 32°20' W 090°54'0 0.0
2016-Jul-21 09:33N 32°20' W 090°54'0 0.0
2016-Jul-21 08:32N 32°20' W 090°54'0 0.0
2016-Jul-21 07:33N 32°20' W 090°54'0 0.0
2016-Jul-21 06:33N 32°20' W 090°54'0 0.0
2016-Jul-21 05:33N 32°20' W 090°54'0 0.0
2016-Jul-21 04:33N 32°20' W 090°54'0 0.0
2016-Jul-21 03:32N 32°20' W 090°54'0 0.0
2016-Jul-21 02:33N 32°20' W 090°54'0 0.0
2016-Jul-21 01:33N 32°20' W 090°54'0 0.0
2016-Jul-21 00:33N 32°20' W 090°54'0 0.0
2016-Jul-20 23:33N 32°20' W 090°54'0 0.0
2016-Jul-20 22:33N 32°20' W 090°54'3 2.9
2016-Jul-20 21:34N 32°22' W 090°53'1 0.7
2016-Jul-20 20:33N 32°23' W 090°53'0 0.3
2016-Jul-20 19:33N 32°23' W 090°53'0 0.2
2016-Jul-20 18:33N 32°23' W 090°53'0 0.0
2016-Jul-20 17:33N 32°23' W 090°53'3 3.0
2016-Jul-20 16:33N 32°20' W 090°54'3 3.1
2016-Jul-20 15:34N 32°18' W 090°55'5 4.7
2016-Jul-20 14:34N 32°22' W 090°53'2 0.1
2016-Jul-18 23:33N 32°20' W 090°54'1 1.0
2016-Jul-18 22:32N 32°21' W 090°54'0 0.0
2016-Jul-18 21:34N 32°21' W 090°54'3 2.6
2016-Jul-18 20:33N 32°23' W 090°55'0 0.0
2016-Jul-18 19:33N 32°23' W 090°55'0 0.0
2016-Jul-18 18:33N 32°23' W 090°55'1 0.8
2016-Jul-18 17:33N 32°23' W 090°54'1 1.3
2016-Jul-18 16:33N 32°21' W 090°53'2 2.0
2016-Jul-18 15:33N 32°21' W 090°55'2 2.1
2016-Jul-18 14:33N 32°21' W 090°58'0 0.0
2016-Jul-18 13:33N 32°21' W 090°57'3 2.8
2016-Jul-18 12:33N 32°20' W 090°54'1 0.7
2016-Jul-18 11:33N 32°20' W 090°54'0 0.0
2016-Jul-18 10:33N 32°20' W 090°54'0 0.0
2016-Jul-18 09:33N 32°20' W 090°54'0 0.0
2016-Jul-18 08:34N 32°20' W 090°54'0 0.0
2016-Jul-18 07:33N 32°20' W 090°54'0 0.0
2016-Jul-18 06:33N 32°20' W 090°54'0 0.0
2016-Jul-18 05:33N 32°20' W 090°54'0 0.0
2016-Jul-18 04:33N 32°20' W 090°54'0 0.0
2016-Jul-18 03:33N 32°20' W 090°54'0 0.0
2016-Jul-18 02:33N 32°20' W 090°54'0 0.0
2016-Jul-18 01:31N 32°20' W 090°54'0 0.0
2016-Jul-18 00:33N 32°20' W 090°54'0 0.0
2016-Jul-17 23:33N 32°20' W 090°54'0 0.0
2016-Jul-17 22:32N 32°20' W 090°54'0 0.0
2016-Jul-17 21:31N 32°20' W 090°54'0 0.0
2016-Jul-17 20:33N 32°20' W 090°54'0 0.0
2016-Jul-17 19:33N 32°20' W 090°54'0 0.0
2016-Jul-17 18:32N 32°20' W 090°54'0 0.0
2016-Jul-17 17:33N 32°20' W 090°54'0 0.0
2016-Jul-17 16:33N 32°20' W 090°54'0 0.0
2016-Jul-17 15:33N 32°20' W 090°54'0 0.0
2016-Jul-17 14:33N 32°20' W 090°54'0 0.0
2016-Jul-17 13:33N 32°20' W 090°54'0 0.0
2016-Jul-17 12:33N 32°20' W 090°54'0 0.0
2016-Jul-17 11:33N 32°20' W 090°54'0 0.0
2016-Jul-17 10:32N 32°20' W 090°54'0 0.0
2016-Jul-17 09:33N 32°20' W 090°54'0 0.0
2016-Jul-17 08:33N 32°20' W 090°54'0 0.0
2016-Jul-17 07:33N 32°20' W 090°54'0 0.0
2016-Jul-17 06:31N 32°20' W 090°54'0 0.0
2016-Jul-17 04:33N 32°20' W 090°54'0 0.0
2016-Jul-17 03:33N 32°20' W 090°54'0 0.0
2016-Jul-17 02:33N 32°20' W 090°54'0 0.0
2016-Jul-17 01:33N 32°20' W 090°54'0 0.0
2016-Jul-17 00:34N 32°20' W 090°54'0 0.0
2016-Jul-16 23:33N 32°20' W 090°54'0 0.0
2016-Jul-16 22:33N 32°20' W 090°54'0 0.0
2016-Jul-16 21:33N 32°20' W 090°54'0 0.0
2016-Jul-16 20:33N 32°20' W 090°54'0 0.0
2016-Jul-16 19:33N 32°20' W 090°54'0 0.0
2016-Jul-16 18:33N 32°20' W 090°54'0 0.0
2016-Jul-16 17:33N 32°20' W 090°54'0 0.0
2016-Jul-16 16:33N 32°20' W 090°54'0 0.0
2016-Jul-16 15:34N 32°20' W 090°54'0 0.0
2016-Jul-16 14:33N 32°20' W 090°54'0 0.0
2016-Jul-16 13:33N 32°20' W 090°54'0 0.0
2016-Jul-16 12:33N 32°20' W 090°54'0 0.0
2016-Jul-16 11:33N 32°20' W 090°54'0 0.0
2016-Jul-16 10:33N 32°20' W 090°54'0 0.0
2016-Jul-16 09:33N 32°20' W 090°54'0 0.0
2016-Jul-16 08:33N 32°20' W 090°54'0 0.0
2016-Jul-16 07:33N 32°20' W 090°54'0 0.0
2016-Jul-16 06:33N 32°20' W 090°54'0 0.0
2016-Jul-16 04:33N 32°20' W 090°54'0 0.0
2016-Jul-16 03:34N 32°20' W 090°54'0 0.0
2016-Jul-16 02:33N 32°20' W 090°54'0 0.0
2016-Jul-16 01:33N 32°20' W 090°54'0 0.0
2016-Jul-16 00:32N 32°20' W 090°54'0 0.0
2016-Jul-15 23:33N 32°20' W 090°54'0 0.0
2016-Jul-15 22:33N 32°20' W 090°54'2 2.2
2016-Jul-15 21:33N 32°22' W 090°53'0 0.2
2016-Jul-15 20:33N 32°22' W 090°53'1 0.5
2016-Jul-15 19:33N 32°22' W 090°53'3 2.8
2016-Jul-15 18:33N 32°20' W 090°54'0 0.0
2016-Jul-15 17:34N 32°20' W 090°54'0 0.0
2016-Jul-15 16:32N 32°20' W 090°54'3 3.1
2016-Jul-15 15:33N 32°22' W 090°53'0 0.4
2016-Jul-15 14:34N 32°22' W 090°53'1 0.6
2016-Jul-15 13:33N 32°22' W 090°53'0 0.0
2016-Jul-15 12:33N 32°22' W 090°53'2 2.2
2016-Jul-15 11:33N 32°20' W 090°54'0 0.0
2016-Jul-15 10:33N 32°20' W 090°54'0 0.0
2016-Jul-15 09:33N 32°20' W 090°54'0 0.0
2016-Jul-15 08:33N 32°20' W 090°54'0 0.0
2016-Jul-15 07:33N 32°20' W 090°54'0 0.0
2016-Jul-15 06:33N 32°20' W 090°54'0 0.0
2016-Jul-15 05:33N 32°20' W 090°54'0 0.0
2016-Jul-15 04:33N 32°20' W 090°54'0 0.0
2016-Jul-15 03:33N 32°20' W 090°54'0 0.0
2016-Jul-15 02:32N 32°20' W 090°54'0 0.0
2016-Jul-15 01:33N 32°20' W 090°54'0 0.0
2016-Jul-15 00:32N 32°20' W 090°54'0 0.0
2016-Jul-14 23:33N 32°20' W 090°54'0 0.0
2016-Jul-14 22:32N 32°20' W 090°54'0 0.0
2016-Jul-14 21:33N 32°20' W 090°54'0 0.0
2016-Jul-14 20:33N 32°20' W 090°54'0 0.0
2016-Jul-14 19:33N 32°20' W 090°54'0 0.0
2016-Jul-14 18:33N 32°20' W 090°54'0 0.0
2016-Jul-14 17:33N 32°20' W 090°54'0 0.0
2016-Jul-14 16:34N 32°20' W 090°54'0 0.0
2016-Jul-14 15:33N 32°20' W 090°54'0 0.0
2016-Jul-14 14:33N 32°20' W 090°54'0 0.0
2016-Jul-14 13:33N 32°20' W 090°54'0 0.0
2016-Jul-14 12:33N 32°20' W 090°54'0 0.0
2016-Jul-14 11:33N 32°20' W 090°54'0 0.0
2016-Jul-14 10:33N 32°20' W 090°54'0 0.0
2016-Jul-14 09:33N 32°20' W 090°54'0 0.0
2016-Jul-14 08:33N 32°20' W 090°54'0 0.0
2016-Jul-14 07:33N 32°20' W 090°54'0 0.0
2016-Jul-14 06:33N 32°20' W 090°54'0 0.0
2016-Jul-14 05:33N 32°20' W 090°54'0 0.0
2016-Jul-14 04:33N 32°20' W 090°54'0 0.0
2016-Jul-14 03:33N 32°20' W 090°54'0 0.0
2016-Jul-14 02:33N 32°20' W 090°54'0 0.0
2016-Jul-14 01:33N 32°20' W 090°54'0 0.0
2016-Jul-14 00:33N 32°20' W 090°54'  

Dump ship's entire track history